Time;durP1;ratioP1;P1;durP2;ratioP2;P2;SDS_P1;SDS_P2;PMS_P1;PMS_P2;Temp;Humidity;BMP_temperature;BMP_pressure;BME280_temperature;BME280_humidity;BME280_pressure;Samples;Min_cycle;Max_cycle;Signal;HPM_P1;HPM_P2
2022/08/18 00:00:30;;;;;;;9.10;8.20;;;;;;;24.80;61.25;98470.75;5122977;28;20212;-68
2022/08/18 00:03:05;;;;;;;10.30;8.38;;;;;;;24.69;65.18;98474.84;5122481;28;20051;-68
2022/08/18 00:05:32;;;;;;;7.38;6.55;;;;;;;24.59;61.10;98467.03;5123072;28;20074;-68
2022/08/18 00:08:00;;;;;;;8.23;5.72;;;;;;;24.33;60.20;98423.47;5122913;28;20055;-68
2022/08/18 00:10:27;;;;;;;6.97;6.28;;;;;;;24.41;60.83;98446.84;5122649;28;20059;-68
2022/08/18 00:12:55;;;;;;;8.23;6.57;;;;;;;24.47;62.28;98473.16;5122607;28;20063;-68
2022/08/18 00:15:23;;;;;;;38.67;8.70;;;;;;;24.33;62.62;98462.22;5122745;28;20055;-67
2022/08/18 00:17:51;;;;;;;7.55;6.03;;;;;;;24.26;62.11;98463.19;5122698;28;20316;-68
2022/08/18 00:20:23;;;;;;;19.63;8.00;;;;;;;24.37;62.33;98483.47;5122596;28;20059;-68
2022/08/18 00:22:51;;;;;;;7.07;6.35;;;;;;;24.27;62.45;98473.81;5122643;28;20056;-69
2022/08/18 00:25:21;;;;;;;11.40;6.50;;;;;;;24.27;63.36;98456.72;5122617;28;20126;-68
2022/08/18 00:27:48;;;;;;;7.93;5.80;;;;;;;24.24;62.55;98467.94;5122525;28;20330;-68
2022/08/18 00:30:18;;;;;;;14.50;13.10;;;;;;;23.88;63.30;98433.59;5122328;28;20051;-68
2022/08/18 00:32:49;;;;;;;11.98;10.77;;;;;;;24.34;61.03;98490.13;5122405;28;20058;-68
2022/08/18 00:35:19;;;;;;;12.25;8.70;;;;;;;24.29;62.53;98498.81;5122432;28;20056;-68
2022/08/18 00:37:47;;;;;;;9.98;8.98;;;;;;;24.13;62.45;98477.41;5122775;28;20062;-68
2022/08/18 00:40:18;;;;;;;9.88;8.73;;;;;;;24.23;62.26;98504.16;5121986;28;20105;-68
2022/08/18 00:42:48;;;;;;;9.48;7.35;;;;;;;24.16;61.34;98508.69;5122218;28;20089;-69
2022/08/18 00:45:19;;;;;;;8.88;6.65;;;;;;;24.17;61.87;98500.38;5122203;28;20331;-68
2022/08/18 00:47:47;;;;;;;7.60;6.68;;;;;;;24.12;63.20;98510.09;5121959;28;20328;-69
2022/08/18 00:50:20;;;;;;;7.13;6.43;;;;;;;24.02;61.54;98491.44;5118226;28;20300;-68
2022/08/18 00:52:53;;;;;;;7.20;6.13;;;;;;;24.14;62.45;98503.44;5108737;28;20048;-68
2022/08/18 00:55:22;;;;;;;6.63;5.93;;;;;;;24.14;61.58;98502.63;5109673;28;20220;-68
2022/08/18 00:57:52;;;;;;;6.70;5.90;;;;;;;24.11;61.14;98500.28;5108669;28;20060;-68
2022/08/18 01:00:21;;;;;;;7.15;6.00;;;;;;;24.07;61.33;98501.69;5108188;28;20052;-69
2022/08/18 01:02:54;;;;;;;6.68;5.97;;;;;;;24.08;61.66;98500.69;5108209;28;20058;-69
2022/08/18 01:05:26;;;;;;;17.35;15.50;;;;;;;24.01;61.79;98511.44;5108056;28;20327;-69
2022/08/18 01:07:53;;;;;;;21.27;15.90;;;;;;;23.98;61.66;98517.22;5108180;28;20051;-68
2022/08/18 01:10:23;;;;;;;14.40;12.32;;;;;;;24.01;61.32;98516.84;5108038;28;20059;-68
2022/08/18 01:12:53;;;;;;;10.40;9.30;;;;;;;23.97;60.74;98520.97;5108229;28;20063;-68
2022/08/18 01:15:23;;;;;;;9.40;8.48;;;;;;;23.96;61.65;98517.38;5107537;28;20058;-69
2022/08/18 01:23:30;;;;;;;7.38;6.57;;;;;;;23.90;60.46;98509.19;5108094;28;20071;-69
2022/08/18 01:26:00;;;;;;;8.52;7.05;;;;;;;23.89;61.45;98524.56;5108076;28;20247;-68
2022/08/18 01:28:28;;;;;;;10.20;6.93;;;;;;;23.78;60.76;98502.56;5107779;28;20061;-68
2022/08/18 01:30:58;;;;;;;6.78;6.07;;;;;;;23.60;61.59;98476.78;5107442;28;20052;-68
2022/08/18 01:33:31;;;;;;;7.25;5.47;;;;;;;23.92;61.10;98515.25;5107552;28;20052;-68
2022/08/18 01:36:01;;;;;;;9.25;6.10;;;;;;;23.90;61.18;98520.00;5107263;28;20316;-69
2022/08/18 01:38:31;;;;;;;6.75;6.05;;;;;;;23.77;60.83;98504.44;5107820;28;20402;-68
2022/08/18 18:57:03;;;;;;;8.25;4.18;;;;;;;26.89;41.75;98294.28;5165758;27;20115;-70
2022/08/18 18:59:48;;;;;;;5.97;3.75;;;;;;;26.94;42.49;98305.34;5164213;27;20051;-71
2022/08/18 19:02:24;;;;;;;5.80;3.13;;;;;;;27.02;42.45;98307.00;5164915;27;20035;-71
2022/08/18 19:05:12;;;;;;;8.10;3.17;;;;;;;27.06;42.24;98298.19;5165028;27;20062;-72
2022/08/18 19:07:52;;;;;;;8.68;3.05;;;;;;;26.82;42.56;98253.53;5164018;27;20055;-72
2022/08/18 19:10:29;;;;;;;6.10;2.92;;;;;;;26.89;42.03;98260.84;5164762;27;20047;-70
2022/08/18 19:13:02;;;;;;;5.63;2.83;;;;;;;27.21;42.41;98302.53;5164566;27;20039;-70
2022/08/18 19:15:33;;;;;;;3.97;2.50;;;;;;;27.26;42.60;98308.19;5164266;27;20050;-71
2022/08/18 19:18:10;;;;;;;6.07;2.80;;;;;;;27.28;42.66;98289.75;5164262;27;20047;-70
2022/08/18 19:20:45;;;;;;;7.63;2.90;;;;;;;27.25;42.74;98290.19;5163975;27;20238;-73
2022/08/18 19:23:19;;;;;;;5.47;3.70;;;;;;;27.27;42.52;98293.53;5164695;27;20042;-71
2022/08/18 19:25:49;;;;;;;5.35;3.25;;;;;;;27.29;43.08;98288.72;5164228;27;20066;-71
2022/08/18 19:28:25;;;;;;;4.95;3.00;;;;;;;27.31;42.92;98278.44;5163965;27;20066;-70
2022/08/18 19:30:57;;;;;;;8.98;4.90;;;;;;;27.23;43.36;98276.81;5163811;27;20054;-71
2022/08/18 19:33:31;;;;;;;10.25;6.13;;;;;;;27.30;43.06;98276.78;5164406;27;20039;-71
2022/08/18 19:36:06;;;;;;;6.97;4.88;;;;;;;27.29;42.75;98292.28;5163789;27;20066;-71
2022/08/18 19:38:49;;;;;;;9.25;7.30;;;;;;;27.31;42.79;98297.50;5146725;27;20062;-70
2022/08/18 19:41:25;;;;;;;8.52;5.03;;;;;;;27.17;42.71;98278.50;5163945;27;20211;-71
2022/08/18 19:44:06;;;;;;;11.45;4.35;;;;;;;27.28;42.24;98300.66;5163898;27;20057;-70
2022/08/18 19:46:38;;;;;;;7.18;3.40;;;;;;;27.27;42.88;98302.53;5163517;27;20307;-70
2022/08/18 19:49:15;;;;;;;8.85;3.88;;;;;;;27.34;42.99;98303.34;5164124;27;20049;-69
2022/08/18 19:51:44;;;;;;;5.15;2.80;;;;;;;27.34;43.05;98305.22;5163554;27;20055;-71
2022/08/18 19:54:27;;;;;;;11.55;5.75;;;;;;;27.26;42.88;98300.88;5163647;27;20051;-71
2022/08/18 19:57:14;;;;;;;6.97;4.07;;;;;;;27.22;42.70;98305.03;5163039;27;20059;-70
2022/08/18 20:00:09;;;;;;;5.68;3.58;;;;;;;27.27;43.02;98315.31;5163794;27;20051;-71
2022/08/18 20:02:54;;;;;;;7.85;3.80;;;;;;;27.15;43.59;98317.84;5145974;27;20077;-70
2022/08/18 20:05:30;;;;;;;7.40;3.65;;;;;;;27.15;43.36;98310.50;5163029;27;20055;-71
2022/08/18 20:08:37;;;;;;;5.55;3.72;;;;;;;27.10;43.39;98323.91;5134540;27;20055;-71
2022/08/18 20:11:28;;;;;;;6.47;3.40;;;;;;;27.11;43.97;98322.88;5086486;28;20308;-72
2022/08/18 20:13:57;;;;;;;6.90;3.50;;;;;;;27.17;43.59;98326.59;5108415;27;20062;-69
2022/08/18 20:16:29;;;;;;;4.85;3.10;;;;;;;27.15;43.55;98326.00;5149366;27;20047;-70
2022/08/18 20:18:58;;;;;;;7.75;3.40;;;;;;;27.06;43.72;98311.81;5149446;27;20050;-70
2022/08/18 20:21:44;;;;;;;6.82;3.55;;;;;;;26.99;43.99;98324.59;5148941;27;20369;-70
2022/08/18 20:24:46;;;;;;;7.53;3.22;;;;;;;26.86;44.04;98316.47;5148898;27;20231;-71
2022/08/18 20:27:32;;;;;;;6.60;4.10;;;;;;;27.04;43.89;98332.94;5149439;27;20050;-70
2022/08/18 20:30:31;;;;;;;7.25;3.28;;;;;;;27.02;44.31;98334.19;5149315;27;20054;-70
2022/08/18 20:33:29;;;;;;;8.80;3.30;;;;;;;27.00;43.99;98342.56;5149204;27;20062;-70
2022/08/18 20:36:09;;;;;;;8.85;4.38;;;;;;;26.92;43.66;98328.38;5148817;27;20055;-70
2022/08/18 20:38:39;;;;;;;9.82;6.82;;;;;;;27.01;43.79;98355.13;5148540;27;20051;-70
2022/08/18 20:41:49;;;;;;;9.52;5.22;;;;;;;26.99;43.45;98351.78;5148881;27;20054;-70
2022/08/18 20:44:52;;;;;;;8.23;3.97;;;;;;;26.92;43.59;98339.25;5148983;27;20291;-71
2022/08/18 20:47:40;;;;;;;5.70;3.67;;;;;;;26.84;44.04;98338.44;5148904;27;20295;-71
2022/08/18 20:50:30;;;;;;;7.28;3.50;;;;;;;26.85;43.94;98331.09;5149164;27;20283;-71
2022/08/18 20:53:09;;;;;;;6.28;3.45;;;;;;;26.46;44.49;98273.06;5148739;27;20066;-70
2022/08/18 20:55:45;;;;;;;5.50;3.10;;;;;;;26.79;45.01;98337.41;5148046;27;20054;-70
2022/08/18 20:58:17;;;;;;;6.43;3.50;;;;;;;26.73;44.83;98311.91;5148421;27;20062;-70
2022/08/18 21:00:48;;;;;;;5.68;3.45;;;;;;;26.83;44.65;98333.22;5149007;27;20287;-71
2022/08/18 21:03:19;;;;;;;7.22;4.03;;;;;;;26.79;45.59;98340.94;5148427;27;20062;-70
2022/08/18 21:05:55;;;;;;;11.98;3.95;;;;;;;26.80;45.78;98336.34;5148271;27;20066;-70
2022/08/18 21:08:28;;;;;;;10.25;6.57;;;;;;;26.56;46.50;98307.94;5148289;27;20063;-71
2022/08/18 21:10:59;;;;;;;6.75;4.57;;;;;;;26.52;46.77;98333.88;5148161;27;20055;-70
2022/08/18 21:13:29;;;;;;;5.93;4.53;;;;;;;26.64;46.37;98337.63;5148154;27;20051;-70
2022/08/18 21:15:57;;;;;;;6.93;4.22;;;;;;;26.53;46.45;98330.09;5148016;27;20059;-71
2022/08/18 21:18:26;;;;;;;7.63;5.07;;;;;;;26.52;46.39;98342.84;5147081;27;20062;-71
2022/08/18 21:20:57;;;;;;;9.80;4.78;;;;;;;26.46;46.14;98326.56;5147886;27;20066;-71
2022/08/18 21:23:29;;;;;;;8.20;5.13;;;;;;;26.44;46.00;98337.63;5148260;27;20120;-71
2022/08/18 21:26:03;;;;;;;6.90;4.05;;;;;;;26.48;45.49;98343.47;5148161;27;20055;-70
2022/08/18 21:28:33;;;;;;;8.10;3.78;;;;;;;26.35;45.46;98311.75;5147882;27;20129;-71
2022/08/18 21:31:04;;;;;;;6.93;4.07;;;;;;;26.51;44.95;98335.75;5147989;27;20055;-69
2022/08/18 21:33:34;;;;;;;5.57;3.42;;;;;;;26.41;44.68;98319.03;5148024;27;20055;-69
2022/08/18 21:36:13;;;;;;;6.68;4.70;;;;;;;26.40;44.42;98321.97;5148113;27;20039;-70
2022/08/18 21:38:48;;;;;;;7.32;5.57;;;;;;;26.42;45.03;98330.75;5147763;27;20047;-70
2022/08/18 21:41:20;;;;;;;9.18;5.03;;;;;;;26.38;46.07;98326.78;5147927;27;20318;-70
2022/08/18 21:43:49;;;;;;;6.10;4.28;;;;;;;26.42;45.58;98328.88;5129780;27;20043;-70
2022/08/18 21:46:23;;;;;;;8.05;5.43;;;;;;;26.45;45.79;98327.59;5147852;27;20051;-69
2022/08/18 21:48:53;;;;;;;9.85;4.93;;;;;;;26.47;46.10;98333.66;5147674;27;20084;-70
2022/08/18 21:51:25;;;;;;;12.10;5.93;;;;;;;26.37;45.93;98322.38;5147128;27;20054;-70
2022/08/18 21:53:53;;;;;;;10.07;6.70;;;;;;;26.31;46.40;98329.50;5147978;27;20039;-70
2022/08/18 21:56:24;;;;;;;9.07;7.07;;;;;;;25.93;46.09;98266.81;5146808;27;20059;-69
2022/08/18 21:59:06;;;;;;;9.57;7.75;;;;;;;26.33;46.39;98334.72;5147030;27;20047;-69
2022/08/18 22:01:35;;;;;;;9.27;5.55;;;;;;;26.23;46.72;98327.00;5147465;27;20119;-69
2022/08/18 22:04:16;;;;;;;7.80;5.40;;;;;;;25.99;46.75;98285.03;5147368;27;20107;-70
2022/08/18 22:06:49;;;;;;;12.90;5.90;;;;;;;26.35;46.69;98325.31;5146998;27;20059;-70
2022/08/18 22:15:15;;;;;;;10.23;6.18;;;;;;;26.18;46.87;98334.94;5147295;27;20100;-69
2022/08/18 22:17:51;;;;;;;9.35;5.32;;;;;;;26.18;46.28;98329.50;5146381;27;20051;-69
2022/08/18 22:20:46;;;;;;;9.95;5.13;;;;;;;26.25;45.84;98337.66;5146714;27;20065;-70
2022/08/18 22:26:20;;;;;;;7.15;4.30;;;;;;;26.17;45.61;98366.69;5147287;27;20080;-69
2022/08/18 22:28:54;;;;;;;8.55;4.13;;;;;;;26.21;45.74;98358.97;5146698;27;20055;-69
2022/08/18 22:31:24;;;;;;;8.88;4.63;;;;;;;25.69;45.91;98297.28;5146139;27;20051;-69
2022/08/18 22:33:53;;;;;;;8.32;4.82;;;;;;;26.08;46.83;98361.66;5146442;27;20059;-70
2022/08/18 22:36:23;;;;;;;6.97;4.38;;;;;;;26.13;46.46;98353.72;5146646;27;20063;-70
2022/08/18 22:38:52;;;;;;;7.82;5.07;;;;;;;26.11;46.81;98359.38;5146528;27;20099;-69
2022/08/18 22:41:21;;;;;;;5.90;3.60;;;;;;;26.12;47.02;98366.47;5146650;27;20055;-69
2022/08/18 22:43:49;;;;;;;7.07;4.10;;;;;;;25.83;46.61;98301.69;5146390;27;20146;-69
2022/08/18 22:46:18;;;;;;;7.30;4.60;;;;;;;26.18;46.79;98368.34;5146829;27;20059;-69
2022/08/18 22:48:45;;;;;;;9.68;4.40;;;;;;;26.17;47.14;98363.97;5146391;27;20253;-69
2022/08/18 22:51:13;;;;;;;9.65;6.32;;;;;;;26.15;47.08;98367.94;5146519;27;20107;-69
2022/08/18 22:53:40;;;;;;;11.00;9.05;;;;;;;26.02;47.09;98357.91;5146414;28;20237;-69
2022/08/18 22:56:08;;;;;;;19.90;14.43;;;;;;;26.12;47.09;98368.34;5146065;28;20063;-69
2022/08/18 22:58:36;;;;;;;19.38;16.23;;;;;;;26.09;47.31;98361.47;5146131;28;20055;-70
2022/08/18 23:01:03;;;;;;;18.25;13.15;;;;;;;26.11;46.89;98361.25;5146101;28;20095;-69
2022/08/18 23:03:31;;;;;;;15.18;9.52;;;;;;;26.10;47.19;98360.41;5146433;28;20100;-70
2022/08/18 23:05:58;;;;;;;9.55;7.15;;;;;;;25.76;46.90;98326.09;5146196;28;20059;-69
2022/08/18 23:08:25;;;;;;;9.23;5.82;;;;;;;25.98;47.56;98363.94;5145780;28;20100;-68
2022/08/18 23:10:52;;;;;;;9.05;4.93;;;;;;;26.02;47.36;98354.34;5146780;28;20047;-70
2022/08/18 23:13:25;;;;;;;9.45;5.93;;;;;;;25.85;47.68;98335.72;5146216;28;20180;-69
2022/08/18 23:15:53;;;;;;;15.73;13.02;;;;;;;25.98;47.72;98342.22;5146354;28;20062;-69
2022/08/18 23:18:22;;;;;;;11.70;9.48;;;;;;;25.62;47.43;98294.56;5145723;28;20051;-69
2022/08/18 23:20:51;;;;;;;22.35;15.07;;;;;;;26.04;48.13;98346.84;5146379;28;20092;-69
2022/08/18 23:23:22;;;;;;;15.75;11.60;;;;;;;26.03;47.93;98339.72;5146065;28;20108;-70
2022/08/18 23:25:50;;;;;;;11.80;9.45;;;;;;;26.04;47.89;98335.97;5146029;28;20051;-69
2022/08/18 23:28:18;;;;;;;13.95;7.82;;;;;;;25.93;48.22;98337.41;5146355;28;20043;-69
2022/08/18 23:30:48;;;;;;;10.75;7.13;;;;;;;25.53;48.16;98264.06;5146255;28;20059;-69
2022/08/18 23:33:18;;;;;;;8.88;5.63;;;;;;;26.00;47.48;98342.88;5146134;28;20076;-69
2022/08/18 23:35:46;;;;;;;8.23;4.50;;;;;;;25.93;47.79;98337.41;5146241;28;20107;-69
2022/08/18 23:38:16;;;;;;;9.65;4.75;;;;;;;25.99;47.39;98328.44;5145694;28;20315;-69
2022/08/18 23:40:47;;;;;;;8.02;5.05;;;;;;;25.92;46.94;98336.56;5146098;28;20367;-69
2022/08/18 23:43:14;;;;;;;11.70;4.68;;;;;;;25.63;47.04;98281.84;5148988;27;20322;-69
2022/08/18 23:45:43;;;;;;;8.73;4.97;;;;;;;25.88;46.59;98335.31;5150309;27;20039;-68
2022/08/18 23:48:11;;;;;;;9.80;4.80;;;;;;;25.89;46.57;98328.84;5149953;27;20051;-69
2022/08/18 23:50:41;;;;;;;6.85;4.78;;;;;;;25.90;46.65;98329.66;5131578;27;20311;-69
2022/08/18 23:53:09;;;;;;;6.15;3.90;;;;;;;25.89;46.71;98333.44;5150048;27;20206;-69
2022/08/18 23:55:37;;;;;;;9.75;4.55;;;;;;;25.45;46.18;98277.00;5149627;27;20055;-70
2022/08/18 23:58:08;;;;;;;7.47;4.07;;;;;;;25.71;46.48;98312.31;5149484;27;20116;-70
